Time;durP1;ratioP1;P1;durP2;ratioP2;P2;SDS_P1;SDS_P2;PMS_P1;PMS_P2;Temp;Humidity;BMP_temperature;BMP_pressure;BME280_temperature;BME280_humidity;BME280_pressure;Samples;Min_cycle;Max_cycle;Signal;HPM_P1;HPM_P2
2024/03/09 00:00:38;;;;;;;33.30;21.10;;;;;;;;;;5021975;28;20052;-65
2024/03/09 00:03:05;;;;;;;36.13;22.15;;;;;;;;;;5018190;28;20116;-65
2024/03/09 00:05:31;;;;;;;38.65;21.25;;;;;;;;;;5015915;28;20034;-66
2024/03/09 00:08:01;;;;;;;33.72;20.75;;;;;;;;;;5017170;28;20057;-65
2024/03/09 00:10:28;;;;;;;34.63;21.02;;;;;;;;;;5019977;28;20058;-66
2024/03/09 00:12:54;;;;;;;33.75;20.98;;;;;;;;;;5012532;28;20114;-65
2024/03/09 00:15:23;;;;;;;36.60;20.08;;;;;;;;;;5001331;28;20095;-65
2024/03/09 00:17:51;;;;;;;34.60;20.88;;;;;;;;;;5004252;28;20905;-65
2024/03/09 00:20:21;;;;;;;33.60;20.00;;;;;;;;;;5024590;28;20046;-65
2024/03/09 00:22:48;;;;;;;36.33;20.70;;;;;;;;;;5015108;28;20046;-65
2024/03/09 00:25:15;;;;;;;34.90;19.80;;;;;;;;;;5015776;28;20432;-65
2024/03/09 00:27:41;;;;;;;32.92;19.92;;;;;;;;;;5015140;28;20075;-65
2024/03/09 00:30:17;;;;;;;34.45;20.60;;;;;;;;;;5018692;28;20569;-65
2024/03/09 00:32:50;;;;;;;34.58;20.10;;;;;;;;;;5018320;28;20170;-66
2024/03/09 00:35:17;;;;;;;35.83;19.50;;;;;;;;;;5016184;28;20053;-65
2024/03/09 00:37:43;;;;;;;34.22;20.98;;;;;;;;;;5020013;28;20180;-65
2024/03/09 00:40:10;;;;;;;33.85;19.08;;;;;;;;;;5015809;28;20114;-65
2024/03/09 00:42:36;;;;;;;34.63;20.33;;;;;;;;;;5016565;28;20080;-66
2024/03/09 00:45:04;;;;;;;39.13;20.08;;;;;;;;;;5016901;28;20144;-66
2024/03/09 00:47:30;;;;;;;37.03;20.58;;;;;;;;;;5016181;28;20044;-66
2024/03/09 00:49:57;;;;;;;34.13;20.63;;;;;;;;;;5016873;28;20378;-65
2024/03/09 00:52:25;;;;;;;34.03;20.10;;;;;;;;;;5024650;28;20132;-66
2024/03/09 00:54:56;;;;;;;35.03;20.58;;;;;;;;;;5026781;28;20229;-65
2024/03/09 00:57:22;;;;;;;35.22;19.58;;;;;;;;;;5017514;28;20049;-66
2024/03/09 00:59:49;;;;;;;34.50;19.65;;;;;;;;;;5016948;28;20153;-65
2024/03/09 01:02:16;;;;;;;35.22;19.27;;;;;;;;;;5018647;28;20404;-65
2024/03/09 01:04:42;;;;;;;35.17;19.38;;;;;;;;;;5021639;28;20337;-65
2024/03/09 01:07:09;;;;;;;34.58;19.35;;;;;;;;;;5018533;28;20037;-65
2024/03/09 01:09:35;;;;;;;35.42;20.13;;;;;;;;;;5019820;28;20049;-65
2024/03/09 01:12:02;;;;;;;36.05;20.10;;;;;;;;;;5025084;28;20030;-65
2024/03/09 01:14:28;;;;;;;34.65;20.15;;;;;;;;;;5020426;28;20104;-65
2024/03/09 01:16:55;;;;;;;33.28;20.75;;;;;;;;;;5025066;28;20037;-65
2024/03/09 01:19:21;;;;;;;31.77;19.05;;;;;;;;;;5021860;28;20504;-65
2024/03/09 01:21:47;;;;;;;36.03;19.65;;;;;;;;;;5021479;28;20087;-65
2024/03/09 01:24:13;;;;;;;34.03;19.35;;;;;;;;;;5019853;28;20042;-65
2024/03/09 01:26:40;;;;;;;34.95;19.80;;;;;;;;;;5022247;28;20140;-65
2024/03/09 01:29:08;;;;;;;34.53;19.92;;;;;;;;;;5021854;28;20081;-66
2024/03/09 01:31:36;;;;;;;31.17;17.77;;;;;;;;;;5023105;28;20129;-65
2024/03/09 01:34:05;;;;;;;36.47;19.75;;;;;;;;;;5039888;28;20049;-65
2024/03/09 01:36:32;;;;;;;34.47;19.70;;;;;;;;;;5019778;28;20044;-65
2024/03/09 01:38:58;;;;;;;38.20;20.70;;;;;;;;;;5047070;28;20037;-65
2024/03/09 01:41:25;;;;;;;33.60;18.58;;;;;;;;;;5023241;28;20089;-65
2024/03/09 01:43:52;;;;;;;36.17;19.23;;;;;;;;;;5025066;28;20053;-66
2024/03/09 01:46:20;;;;;;;41.78;21.25;;;;;;;;;;5037778;28;20045;-65
2024/03/09 01:48:48;;;;;;;35.17;18.98;;;;;;;;;;5042549;28;20519;-65
2024/03/09 01:51:15;;;;;;;33.45;19.23;;;;;;;;;;5036984;28;20049;-65
2024/03/09 01:53:43;;;;;;;35.95;20.13;;;;;;;;;;5037050;28;20048;-65
2024/03/09 01:56:11;;;;;;;33.65;18.33;;;;;;;;;;5018549;28;20038;-66
2024/03/09 01:58:42;;;;;;;38.03;20.35;;;;;;;;;;5036271;28;20166;-66
2024/03/09 02:01:21;;;;;;;32.55;18.80;;;;;;;;;;5019427;28;20540;-66
2024/03/09 02:03:52;;;;;;;35.10;20.02;;;;;;;;;;5040629;28;20511;-66
2024/03/09 02:06:21;;;;;;;38.42;20.98;;;;;;;;;;5036957;28;20076;-66
2024/03/09 02:08:47;;;;;;;36.03;19.17;;;;;;;;;;5037450;28;20048;-66
2024/03/09 02:11:13;;;;;;;34.38;19.38;;;;;;;;;;5019847;28;20120;-66
2024/03/09 02:13:41;;;;;;;32.33;17.95;;;;;;;;;;5020055;28;20130;-66
2024/03/09 02:16:07;;;;;;;35.55;19.35;;;;;;;;;;5037725;28;20053;-66
2024/03/09 02:18:33;;;;;;;36.05;19.08;;;;;;;;;;5020371;28;20045;-66
2024/03/09 02:21:01;;;;;;;35.20;19.17;;;;;;;;;;5036767;28;20130;-66
2024/03/09 02:23:31;;;;;;;33.33;18.50;;;;;;;;;;5019994;28;20418;-65
2024/03/09 02:25:59;;;;;;;29.00;16.60;;;;;;;;;;5021740;28;20071;-66
2024/03/09 02:28:27;;;;;;;32.38;19.08;;;;;;;;;;5041544;28;20128;-65
2024/03/09 02:30:54;;;;;;;36.05;19.95;;;;;;;;;;5031604;28;20140;-65
2024/03/09 02:33:21;;;;;;;32.25;18.38;;;;;;;;;;5027541;28;20619;-66
2024/03/09 02:35:48;;;;;;;35.38;17.77;;;;;;;;;;5028589;28;20106;-65
2024/03/09 02:38:14;;;;;;;32.63;19.55;;;;;;;;;;5030127;28;20049;-65
2024/03/09 02:40:41;;;;;;;34.17;18.48;;;;;;;;;;5026174;28;20045;-65
2024/03/09 02:43:07;;;;;;;35.78;19.60;;;;;;;;;;5023109;28;20079;-66
2024/03/09 02:45:34;;;;;;;37.00;18.90;;;;;;;;;;5024642;28;20116;-65
2024/03/09 02:48:00;;;;;;;37.28;18.85;;;;;;;;;;5015779;28;20397;-65
2024/03/09 02:50:27;;;;;;;33.25;19.27;;;;;;;;;;5022577;28;20377;-65
2024/03/09 02:52:53;;;;;;;33.25;18.90;;;;;;;;;;5022130;28;20049;-65
2024/03/09 02:55:19;;;;;;;33.53;19.17;;;;;;;;;;5021602;28;20207;-65
2024/03/09 02:57:47;;;;;;;33.03;18.05;;;;;;;;;;5020182;28;20113;-65
2024/03/09 03:00:14;;;;;;;31.20;17.35;;;;;;;;;;5020304;28;20107;-65
2024/03/09 03:05:25;;;;;;;33.17;17.65;;;;;;;;;;5024054;28;20065;-65
2024/03/09 03:07:52;;;;;;;32.22;17.90;;;;;;;;;;5022859;28;20079;-65
2024/03/09 03:10:18;;;;;;;34.05;18.70;;;;;;;;;;5021842;28;20514;-65
2024/03/09 03:12:46;;;;;;;34.80;19.10;;;;;;;;;;5021998;28;20041;-65
2024/03/09 03:15:12;;;;;;;33.97;18.77;;;;;;;;;;5018251;28;21237;-65
2024/03/09 03:17:38;;;;;;;31.67;17.63;;;;;;;;;;5022670;28;20041;-65
2024/03/09 03:20:06;;;;;;;34.88;18.67;;;;;;;;;;5020500;28;20073;-65
2024/03/09 03:22:33;;;;;;;34.95;18.67;;;;;;;;;;5024937;28;20050;-65
2024/03/09 03:24:59;;;;;;;32.75;19.73;;;;;;;;;;5025783;28;20081;-65
2024/03/09 03:27:25;;;;;;;35.38;18.30;;;;;;;;;;5024181;28;20124;-65
2024/03/09 03:29:51;;;;;;;31.45;18.17;;;;;;;;;;5027805;28;20040;-65
2024/03/09 03:32:18;;;;;;;32.08;18.65;;;;;;;;;;5027927;28;20144;-65
2024/03/09 03:34:44;;;;;;;33.22;18.83;;;;;;;;;;5028692;28;20045;-65
2024/03/09 03:37:10;;;;;;;34.80;18.73;;;;;;;;;;5051116;28;20845;-65
2024/03/09 03:39:38;;;;;;;34.85;19.02;;;;;;;;;;5034872;28;20080;-65
2024/03/09 03:42:04;;;;;;;36.28;20.48;;;;;;;;;;5038956;28;20051;-65
2024/03/09 03:44:34;;;;;;;34.00;18.92;;;;;;;;;;5034763;28;20037;-65
2024/03/09 03:47:00;;;;;;;31.38;17.70;;;;;;;;;;5017973;28;20174;-65
2024/03/09 03:49:27;;;;;;;35.65;19.67;;;;;;;;;;5027310;28;20114;-65
2024/03/09 03:51:55;;;;;;;36.20;19.77;;;;;;;;;;5028903;28;20063;-65
2024/03/09 03:54:22;;;;;;;35.83;20.67;;;;;;;;;;5050994;28;20396;-65
2024/03/09 03:56:48;;;;;;;34.85;20.00;;;;;;;;;;5054617;28;20044;-65
2024/03/09 03:59:14;;;;;;;37.65;19.90;;;;;;;;;;5026309;28;20045;-65
2024/03/09 04:01:41;;;;;;;34.05;19.88;;;;;;;;;;5028237;28;20041;-65
2024/03/09 04:04:07;;;;;;;34.78;18.80;;;;;;;;;;5043379;28;20048;-65
2024/03/09 04:06:34;;;;;;;39.40;19.30;;;;;;;;;;5032291;28;20059;-65
2024/03/09 04:09:01;;;;;;;36.92;19.95;;;;;;;;;;5033628;28;20055;-65
2024/03/09 04:11:32;;;;;;;36.22;19.80;;;;;;;;;;5034839;28;20156;-65
2024/03/09 04:13:59;;;;;;;35.60;19.77;;;;;;;;;;5031152;28;20049;-65
2024/03/09 04:16:25;;;;;;;36.58;18.77;;;;;;;;;;5029997;28;20369;-65
2024/03/09 04:18:51;;;;;;;34.75;19.88;;;;;;;;;;5036847;28;20032;-64
2024/03/09 04:21:18;;;;;;;36.15;21.73;;;;;;;;;;5047318;28;20095;-64
2024/03/09 04:23:45;;;;;;;35.08;19.27;;;;;;;;;;5030000;28;20124;-65
2024/03/09 04:26:11;;;;;;;35.22;20.15;;;;;;;;;;5029388;28;20048;-65
2024/03/09 04:28:38;;;;;;;34.20;19.52;;;;;;;;;;5027337;28;20112;-65
2024/03/09 04:31:06;;;;;;;36.83;20.90;;;;;;;;;;5030190;28;20409;-65
2024/03/09 04:33:33;;;;;;;35.50;19.35;;;;;;;;;;5032406;28;20045;-65
2024/03/09 04:35:59;;;;;;;40.22;21.42;;;;;;;;;;5030703;28;20072;-65
2024/03/09 04:38:26;;;;;;;34.10;19.83;;;;;;;;;;5032511;28;20055;-65
2024/03/09 04:40:52;;;;;;;42.97;22.20;;;;;;;;;;5026368;28;20256;-65
2024/03/09 04:43:18;;;;;;;35.70;20.35;;;;;;;;;;5023755;28;20053;-65
2024/03/09 04:45:46;;;;;;;41.42;20.42;;;;;;;;;;5026186;28;20064;-65
2024/03/09 04:48:13;;;;;;;35.15;18.92;;;;;;;;;;5025677;28;20114;-65
2024/03/09 04:50:41;;;;;;;41.10;21.67;;;;;;;;;;5031013;28;20105;-65
2024/03/09 04:53:08;;;;;;;37.28;21.77;;;;;;;;;;5033594;28;20167;-65
2024/03/09 04:55:35;;;;;;;37.00;21.30;;;;;;;;;;5022613;28;20049;-65
2024/03/09 04:58:15;;;;;;;37.55;20.95;;;;;;;;;;5018911;28;20592;-65
2024/03/09 05:00:41;;;;;;;36.33;22.02;;;;;;;;;;5022830;28;20061;-65
2024/03/09 05:03:07;;;;;;;42.63;23.40;;;;;;;;;;5023581;28;20045;-65
2024/03/09 05:05:34;;;;;;;39.28;21.73;;;;;;;;;;5020522;28;20148;-65
2024/03/09 05:08:02;;;;;;;44.88;22.48;;;;;;;;;;5024317;28;20048;-65
2024/03/09 05:10:30;;;;;;;38.65;21.33;;;;;;;;;;5018168;28;20095;-65
2024/03/09 05:12:56;;;;;;;39.15;22.30;;;;;;;;;;5020597;28;20053;-66
2024/03/09 05:15:24;;;;;;;45.30;22.85;;;;;;;;;;5016425;28;20465;-65
2024/03/09 05:17:50;;;;;;;41.95;23.08;;;;;;;;;;5019064;28;20045;-65
2024/03/09 05:20:20;;;;;;;43.67;23.02;;;;;;;;;;5017612;28;20037;-65
2024/03/09 05:22:48;;;;;;;37.20;21.83;;;;;;;;;;5014459;28;20092;-66
2024/03/09 05:25:14;;;;;;;37.40;21.45;;;;;;;;;;5014703;28;20045;-65
2024/03/09 05:27:42;;;;;;;38.05;21.23;;;;;;;;;;5015449;28;20065;-65
2024/03/09 05:30:10;;;;;;;44.17;24.83;;;;;;;;;;5013916;28;20139;-65
2024/03/09 05:32:37;;;;;;;36.75;22.05;;;;;;;;;;5032762;28;20418;-65
2024/03/09 05:35:04;;;;;;;38.85;21.42;;;;;;;;;;5014022;28;20133;-65
2024/03/09 05:37:30;;;;;;;43.00;22.92;;;;;;;;;;5012675;28;20485;-65
2024/03/09 05:39:56;;;;;;;42.58;23.35;;;;;;;;;;5016907;28;20045;-65
2024/03/09 05:42:22;;;;;;;41.13;22.90;;;;;;;;;;5017608;28;20077;-65
2024/03/09 05:44:49;;;;;;;40.08;22.50;;;;;;;;;;5000293;28;20079;-65
2024/03/09 05:47:15;;;;;;;44.60;23.40;;;;;;;;;;5017088;28;20053;-65
2024/03/09 05:49:41;;;;;;;40.00;23.35;;;;;;;;;;5014526;28;20458;-65
2024/03/09 05:52:08;;;;;;;42.42;24.45;;;;;;;;;;5021467;28;20068;-65
2024/03/09 05:54:35;;;;;;;46.05;24.40;;;;;;;;;;5021090;28;20833;-65
2024/03/09 05:57:03;;;;;;;39.67;23.83;;;;;;;;;;5015284;28;20061;-65
2024/03/09 05:59:32;;;;;;;42.92;23.60;;;;;;;;;;5015017;28;20390;-65
2024/03/09 06:01:58;;;;;;;41.90;24.42;;;;;;;;;;5014727;28;20111;-64
2024/03/09 06:04:24;;;;;;;44.25;24.70;;;;;;;;;;5015377;28;20060;-64
2024/03/09 06:06:52;;;;;;;40.90;23.05;;;;;;;;;;5015922;28;20041;-65
2024/03/09 06:09:20;;;;;;;44.20;23.98;;;;;;;;;;5016463;28;20398;-65
2024/03/09 06:11:48;;;;;;;44.17;22.98;;;;;;;;;;5011923;28;20045;-65
2024/03/09 06:14:16;;;;;;;47.78;25.55;;;;;;;;;;5014870;28;20120;-65
2024/03/09 06:16:42;;;;;;;43.90;23.98;;;;;;;;;;5016459;28;20072;-65
2024/03/09 06:19:08;;;;;;;46.15;23.63;;;;;;;;;;5015701;28;20072;-65
2024/03/09 06:21:35;;;;;;;43.53;24.42;;;;;;;;;;5017022;28;20096;-65
2024/03/09 06:24:01;;;;;;;43.08;24.92;;;;;;;;;;5018270;28;20088;-65
2024/03/09 06:26:27;;;;;;;46.15;24.55;;;;;;;;;;5023158;28;20611;-65
2024/03/09 06:28:53;;;;;;;43.08;23.25;;;;;;;;;;5014965;28;20177;-65
2024/03/09 06:31:21;;;;;;;47.22;26.25;;;;;;;;;;5016389;28;20058;-64
2024/03/09 06:33:47;;;;;;;44.03;24.63;;;;;;;;;;5019076;28;20042;-65
2024/03/09 06:36:14;;;;;;;44.67;24.13;;;;;;;;;;5040165;28;20049;-65
2024/03/09 06:38:41;;;;;;;44.75;26.00;;;;;;;;;;5018412;28;20120;-65
2024/03/09 06:41:09;;;;;;;47.00;24.30;;;;;;;;;;5021214;28;20041;-64
2024/03/09 06:43:36;;;;;;;48.15;24.92;;;;;;;;;;5020867;28;20041;-65
2024/03/09 06:46:03;;;;;;;43.28;25.35;;;;;;;;;;5020232;28;20125;-65
2024/03/09 06:48:30;;;;;;;46.08;27.25;;;;;;;;;;5015066;28;20168;-64
2024/03/09 06:50:58;;;;;;;46.97;25.67;;;;;;;;;;5008013;28;20405;-65
2024/03/09 06:53:25;;;;;;;50.47;25.63;;;;;;;;;;5012850;28;20476;-64
2024/03/09 06:55:51;;;;;;;47.53;24.58;;;;;;;;;;5021225;28;20120;-65
2024/03/09 06:58:18;;;;;;;48.28;26.50;;;;;;;;;;5017752;28;20049;-65
2024/03/09 07:00:44;;;;;;;44.70;27.08;;;;;;;;;;5018365;28;20090;-64
2024/03/09 07:03:10;;;;;;;50.00;26.67;;;;;;;;;;5014320;28;20382;-64
2024/03/09 07:05:36;;;;;;;40.03;21.60;;;;;;;;;;5013257;28;20686;-65
2024/03/09 07:08:03;;;;;;;46.38;27.25;;;;;;;;;;5018456;28;20093;-65
2024/03/09 07:10:30;;;;;;;48.55;25.17;;;;;;;;;;5023756;28;20127;-64
2024/03/09 07:12:58;;;;;;;50.25;27.48;;;;;;;;;;5038364;28;20043;-65
2024/03/09 07:15:26;;;;;;;52.63;26.88;;;;;;;;;;5021367;28;20393;-65
2024/03/09 07:17:54;;;;;;;43.70;26.25;;;;;;;;;;5024269;28;20339;-65
2024/03/09 07:20:23;;;;;;;43.80;26.02;;;;;;;;;;5016800;28;20049;-66
2024/03/09 07:22:50;;;;;;;49.85;28.67;;;;;;;;;;5021260;28;20052;-65
2024/03/09 07:25:24;;;;;;;46.75;25.25;;;;;;;;;;5022265;28;20136;-65
2024/03/09 07:27:51;;;;;;;50.58;28.40;;;;;;;;;;5019934;28;20057;-65
2024/03/09 07:30:18;;;;;;;45.65;25.77;;;;;;;;;;5027049;28;20049;-65
2024/03/09 07:32:49;;;;;;;46.58;27.15;;;;;;;;;;5022227;28;20512;-65
2024/03/09 07:35:16;;;;;;;46.35;26.48;;;;;;;;;;5016630;28;20716;-65
2024/03/09 07:37:43;;;;;;;50.75;28.20;;;;;;;;;;5019795;28;20200;-65
2024/03/09 07:40:13;;;;;;;46.33;26.33;;;;;;;;;;5024750;28;20103;-65
2024/03/09 07:42:40;;;;;;;46.80;26.52;;;;;;;;;;5023418;28;20041;-65
2024/03/09 07:45:07;;;;;;;49.40;27.50;;;;;;;;;;5017477;28;20045;-65
2024/03/09 07:47:34;;;;;;;50.92;27.52;;;;;;;;;;5016128;28;20037;-65
2024/03/09 07:50:01;;;;;;;47.85;27.42;;;;;;;;;;5014686;28;20045;-65
2024/03/09 07:52:27;;;;;;;52.42;26.88;;;;;;;;;;5018343;28;20045;-65
2024/03/09 07:54:56;;;;;;;49.63;27.05;;;;;;;;;;5002050;28;20072;-65
2024/03/09 07:57:22;;;;;;;55.42;27.40;;;;;;;;;;5016766;28;20048;-65
2024/03/09 07:59:48;;;;;;;48.72;27.90;;;;;;;;;;5017292;28;20045;-65
2024/03/09 08:02:14;;;;;;;47.83;26.77;;;;;;;;;;5020679;28;20176;-65
2024/03/09 08:04:41;;;;;;;43.75;26.85;;;;;;;;;;5038024;28;20041;-65
2024/03/09 08:07:08;;;;;;;48.67;26.92;;;;;;;;;;5015195;28;20178;-65
2024/03/09 08:09:34;;;;;;;46.97;28.15;;;;;;;;;;5017576;28;20471;-65
2024/03/09 08:12:01;;;;;;;49.67;28.35;;;;;;;;;;5021735;28;20128;-63
2024/03/09 08:14:33;;;;;;;51.72;29.13;;;;;;;;;;5023277;28;20460;-65
2024/03/09 08:17:00;;;;;;;47.55;26.17;;;;;;;;;;5024285;28;20045;-65
2024/03/09 08:19:27;;;;;;;46.10;27.55;;;;;;;;;;5024061;28;20126;-65
2024/03/09 08:21:53;;;;;;;43.38;26.02;;;;;;;;;;5025740;28;20049;-65
2024/03/09 08:24:21;;;;;;;46.85;28.13;;;;;;;;;;5026414;28;20079;-66
2024/03/09 08:26:47;;;;;;;48.05;28.10;;;;;;;;;;5022823;28;20091;-65
2024/03/09 08:29:16;;;;;;;47.22;28.35;;;;;;;;;;5025268;28;20182;-65
2024/03/09 08:31:42;;;;;;;46.25;27.33;;;;;;;;;;5026555;28;20056;-65
2024/03/09 08:34:09;;;;;;;43.17;26.60;;;;;;;;;;5022042;28;20106;-65
2024/03/09 08:36:36;;;;;;;47.65;27.48;;;;;;;;;;5026109;28;20043;-65
2024/03/09 08:39:02;;;;;;;44.33;25.67;;;;;;;;;;5025968;28;20117;-65
2024/03/09 08:41:28;;;;;;;42.42;25.20;;;;;;;;;;5024286;28;20048;-65
2024/03/09 08:43:55;;;;;;;42.88;26.17;;;;;;;;;;5026914;28;20064;-65
2024/03/09 08:46:21;;;;;;;44.80;24.60;;;;;;;;;;5025690;28;20620;-65
2024/03/09 08:48:48;;;;;;;49.45;26.90;;;;;;;;;;5020221;28;20049;-65
2024/03/09 08:51:14;;;;;;;40.97;25.50;;;;;;;;;;5005009;28;20097;-65
2024/03/09 08:53:41;;;;;;;44.28;26.63;;;;;;;;;;5023157;28;20398;-65
2024/03/09 08:56:08;;;;;;;42.55;26.63;;;;;;;;;;5019815;28;20049;-64
2024/03/09 08:58:34;;;;;;;40.22;25.95;;;;;;;;;;5021931;28;20072;-64
2024/03/09 09:01:01;;;;;;;44.15;26.77;;;;;;;;;;5023461;28;20045;-65
2024/03/09 09:03:27;;;;;;;41.92;25.42;;;;;;;;;;5022730;28;20069;-65
2024/03/09 09:05:54;;;;;;;43.25;26.15;;;;;;;;;;5021508;28;20076;-66
2024/03/09 09:08:26;;;;;;;42.58;27.10;;;;;;;;;;5019569;28;20038;-66
2024/03/09 09:10:53;;;;;;;40.38;24.08;;;;;;;;;;5020602;28;20064;-66
2024/03/09 09:13:21;;;;;;;47.50;25.48;;;;;;;;;;5019651;28;20050;-66
2024/03/09 09:15:48;;;;;;;42.78;25.58;;;;;;;;;;5019579;28;20113;-66
2024/03/09 09:18:15;;;;;;;41.17;26.75;;;;;;;;;;5021607;28;20103;-66
2024/03/09 09:20:41;;;;;;;44.63;25.63;;;;;;;;;;5020320;28;20092;-66
2024/03/09 09:23:10;;;;;;;45.63;25.45;;;;;;;;;;5019437;28;20041;-66
2024/03/09 09:25:38;;;;;;;41.60;24.52;;;;;;;;;;5017390;28;20069;-66
2024/03/09 09:28:05;;;;;;;41.67;25.63;;;;;;;;;;5016315;28;20072;-66
2024/03/09 09:30:32;;;;;;;44.05;27.02;;;;;;;;;;5017403;28;20623;-66
2024/03/09 09:32:59;;;;;;;43.20;26.70;;;;;;;;;;5000905;28;20098;-66
2024/03/09 09:35:25;;;;;;;44.88;26.00;;;;;;;;;;5019279;28;20108;-66
2024/03/09 09:37:53;;;;;;;39.35;25.13;;;;;;;;;;5016081;28;20041;-66
2024/03/09 09:40:19;;;;;;;43.22;26.25;;;;;;;;;;5034330;28;20132;-66
2024/03/09 09:42:47;;;;;;;41.40;26.92;;;;;;;;;;5036595;28;20117;-67
2024/03/09 09:45:17;;;;;;;46.22;27.40;;;;;;;;;;5034062;28;20419;-66
2024/03/09 09:47:47;;;;;;;45.63;26.60;;;;;;;;;;5037205;28;20041;-66
2024/03/09 09:50:18;;;;;;;45.20;27.08;;;;;;;;;;5031783;28;20116;-66
2024/03/09 09:52:49;;;;;;;42.30;26.23;;;;;;;;;;5015742;28;20509;-66
2024/03/09 09:55:16;;;;;;;41.42;25.05;;;;;;;;;;5012678;28;20461;-66
2024/03/09 09:57:45;;;;;;;43.42;26.73;;;;;;;;;;5011986;28;20080;-66
2024/03/09 10:00:12;;;;;;;46.53;28.75;;;;;;;;;;5032574;28;20048;-65
2024/03/09 10:02:39;;;;;;;42.25;26.83;;;;;;;;;;5020795;28;20124;-65
2024/03/09 10:05:15;;;;;;;40.45;25.88;;;;;;;;;;5015853;28;20077;-66
2024/03/09 10:07:58;;;;;;;38.53;25.35;;;;;;;;;;5032986;28;20094;-65
2024/03/09 10:10:30;;;;;;;42.65;26.73;;;;;;;;;;5034261;28;20065;-65
2024/03/09 10:13:08;;;;;;;43.05;26.90;;;;;;;;;;5036081;28;20118;-65
2024/03/09 10:15:35;;;;;;;38.13;25.27;;;;;;;;;;5018831;28;20127;-68
2024/03/09 10:18:03;;;;;;;37.20;24.98;;;;;;;;;;5037772;28;20133;-65
2024/03/09 10:20:32;;;;;;;39.25;25.75;;;;;;;;;;5041692;28;20413;-65
2024/03/09 10:23:01;;;;;;;40.33;25.88;;;;;;;;;;5038432;28;20136;-66
2024/03/09 10:25:30;;;;;;;38.75;26.00;;;;;;;;;;5037965;28;20385;-66
2024/03/09 10:27:58;;;;;;;38.22;26.10;;;;;;;;;;5038071;28;20396;-66
2024/03/09 10:30:25;;;;;;;39.50;24.85;;;;;;;;;;5026786;28;20111;-66
2024/03/09 10:32:53;;;;;;;39.42;25.02;;;;;;;;;;5016696;28;20049;-66
2024/03/09 10:35:19;;;;;;;40.28;24.35;;;;;;;;;;5019882;28;20045;-66
2024/03/09 10:37:46;;;;;;;37.42;26.27;;;;;;;;;;5020412;28;20041;-65
2024/03/09 10:40:12;;;;;;;38.75;24.13;;;;;;;;;;5027036;28;20086;-65
2024/03/09 10:42:43;;;;;;;40.53;25.58;;;;;;;;;;5027722;28;20098;-65
2024/03/09 10:45:12;;;;;;;39.97;25.67;;;;;;;;;;5023947;28;20038;-65
2024/03/09 10:47:45;;;;;;;38.20;25.33;;;;;;;;;;5021614;28;20045;-65
2024/03/09 10:50:16;;;;;;;38.85;25.77;;;;;;;;;;5021768;28;20053;-66
2024/03/09 10:52:50;;;;;;;37.97;25.50;;;;;;;;;;5020951;28;20052;-65
2024/03/09 10:55:24;;;;;;;38.67;25.65;;;;;;;;;;5017978;28;20078;-65
2024/03/09 10:57:53;;;;;;;33.45;24.27;;;;;;;;;;5027030;28;20060;-65
2024/03/09 11:00:28;;;;;;;40.35;26.58;;;;;;;;;;5023493;28;20049;-65
2024/03/09 11:02:56;;;;;;;40.25;25.05;;;;;;;;;;5026848;28;20072;-65
2024/03/09 11:05:24;;;;;;;38.58;25.48;;;;;;;;;;5021419;28;20103;-65
2024/03/09 11:07:52;;;;;;;37.67;25.85;;;;;;;;;;5026887;28;20071;-66
2024/03/09 11:10:19;;;;;;;36.85;25.20;;;;;;;;;;5030219;28;20041;-66
2024/03/09 11:12:46;;;;;;;36.20;25.08;;;;;;;;;;5026373;28;20144;-66
2024/03/09 11:15:13;;;;;;;34.75;23.48;;;;;;;;;;5023495;28;20053;-66
2024/03/09 11:17:44;;;;;;;34.55;23.65;;;;;;;;;;5022807;28;20049;-66
2024/03/09 11:20:12;;;;;;;35.70;25.33;;;;;;;;;;5028462;28;20060;-66
2024/03/09 11:22:40;;;;;;;33.15;23.95;;;;;;;;;;5027191;28;20045;-66
2024/03/09 11:25:12;;;;;;;33.47;24.42;;;;;;;;;;5023395;28;20159;-66
2024/03/09 11:27:39;;;;;;;32.60;24.13;;;;;;;;;;5025897;28;20045;-66
2024/03/09 11:30:07;;;;;;;32.78;23.98;;;;;;;;;;5023243;28;20095;-66
2024/03/09 11:32:34;;;;;;;29.48;23.45;;;;;;;;;;5033715;28;20401;-66
2024/03/09 11:35:21;;;;;;;31.92;23.73;;;;;;;;;;5004339;28;20045;-66
2024/03/09 11:37:50;;;;;;;31.65;22.95;;;;;;;;;;5021483;28;20113;-66
2024/03/09 11:40:18;;;;;;;31.25;23.23;;;;;;;;;;5022205;28;20053;-66
2024/03/09 11:42:44;;;;;;;30.05;23.30;;;;;;;;;;5028215;28;20507;-66
2024/03/09 11:45:13;;;;;;;33.88;23.42;;;;;;;;;;5024613;28;20076;-66
2024/03/09 11:47:40;;;;;;;31.70;23.52;;;;;;;;;;5026655;28;20045;-66
2024/03/09 11:50:06;;;;;;;29.45;23.05;;;;;;;;;;5020409;28;20048;-66
2024/03/09 11:52:33;;;;;;;30.58;22.85;;;;;;;;;;5026152;28;20643;-66
2024/03/09 11:55:02;;;;;;;28.00;20.88;;;;;;;;;;5022265;28;20497;-65
2024/03/09 11:57:29;;;;;;;28.73;21.98;;;;;;;;;;5025698;28;20041;-66
2024/03/09 11:59:57;;;;;;;31.50;22.75;;;;;;;;;;5026585;28;20125;-65
2024/03/09 12:02:24;;;;;;;31.35;23.42;;;;;;;;;;5024776;28;20615;-65
2024/03/09 12:04:56;;;;;;;36.15;23.95;;;;;;;;;;5025580;28;20041;-73
2024/03/09 12:07:23;;;;;;;35.40;23.10;;;;;;;;;;5027154;28;20100;-65
2024/03/09 12:09:49;;;;;;;33.63;22.92;;;;;;;;;;5023516;28;20042;-65
2024/03/09 12:12:15;;;;;;;31.38;23.33;;;;;;;;;;5027152;28;20042;-65
2024/03/09 12:14:43;;;;;;;31.17;23.17;;;;;;;;;;5025795;28;20045;-65
2024/03/09 12:17:10;;;;;;;31.42;22.48;;;;;;;;;;5028308;28;20061;-65
2024/03/09 12:19:37;;;;;;;32.92;23.95;;;;;;;;;;5031481;28;20128;-65
2024/03/09 12:22:03;;;;;;;33.97;24.00;;;;;;;;;;5031476;28;20052;-65
2024/03/09 12:24:29;;;;;;;35.40;24.48;;;;;;;;;;5032143;28;20124;-65
2024/03/09 12:26:56;;;;;;;28.98;22.23;;;;;;;;;;5029364;28;20110;-65
2024/03/09 12:29:23;;;;;;;28.73;21.50;;;;;;;;;;5028354;28;20064;-66
2024/03/09 12:31:50;;;;;;;28.63;21.45;;;;;;;;;;5032809;28;20106;-65
2024/03/09 12:34:17;;;;;;;29.10;22.27;;;;;;;;;;5028874;28;20041;-65
2024/03/09 12:36:52;;;;;;;26.83;20.42;;;;;;;;;;5027656;28;20405;-65
2024/03/09 12:39:18;;;;;;;27.50;21.80;;;;;;;;;;5029623;28;20088;-65
2024/03/09 12:41:50;;;;;;;26.60;20.77;;;;;;;;;;5034148;28;20135;-65
2024/03/09 12:44:17;;;;;;;27.13;21.38;;;;;;;;;;5030991;28;20216;-65
2024/03/09 12:46:43;;;;;;;28.58;20.65;;;;;;;;;;5030211;28;20033;-66
2024/03/09 12:49:13;;;;;;;25.80;19.85;;;;;;;;;;5026700;28;20092;-66
2024/03/09 12:51:41;;;;;;;27.13;20.02;;;;;;;;;;5029856;28;20107;-65
2024/03/09 12:54:08;;;;;;;31.13;21.10;;;;;;;;;;5029552;28;20048;-66
2024/03/09 12:56:36;;;;;;;24.23;19.65;;;;;;;;;;5027285;28;20062;-66
2024/03/09 12:59:03;;;;;;;25.45;19.08;;;;;;;;;;5030959;28;20163;-66
2024/03/09 13:01:31;;;;;;;24.70;19.58;;;;;;;;;;5027331;28;20042;-65
2024/03/09 13:03:58;;;;;;;27.02;19.48;;;;;;;;;;5027326;28;20042;-66
2024/03/09 13:06:24;;;;;;;25.60;19.20;;;;;;;;;;5028777;28;20191;-66
2024/03/09 13:08:52;;;;;;;25.35;18.73;;;;;;;;;;5025136;28;20060;-66
2024/03/09 13:11:20;;;;;;;24.40;18.77;;;;;;;;;;5030718;28;20089;-66
2024/03/09 13:13:47;;;;;;;26.13;19.45;;;;;;;;;;5029612;28;20116;-66
2024/03/09 13:16:16;;;;;;;21.27;18.58;;;;;;;;;;5024828;28;20148;-66
2024/03/09 13:18:43;;;;;;;23.60;19.15;;;;;;;;;;5030030;28;20086;-66
2024/03/09 13:21:10;;;;;;;25.63;19.58;;;;;;;;;;5029405;28;20045;-66
2024/03/09 13:23:36;;;;;;;23.30;18.95;;;;;;;;;;5026933;28;20073;-65
2024/03/09 13:26:03;;;;;;;24.08;19.50;;;;;;;;;;5028211;28;20071;-66
2024/03/09 13:28:31;;;;;;;26.13;19.88;;;;;;;;;;5027908;28;20398;-65
2024/03/09 13:31:03;;;;;;;24.30;18.75;;;;;;;;;;5028335;28;20599;-65
2024/03/09 13:33:33;;;;;;;28.13;20.80;;;;;;;;;;5027837;28;20054;-65
2024/03/09 13:35:59;;;;;;;26.55;19.52;;;;;;;;;;5027198;28;20461;-66
2024/03/09 13:38:26;;;;;;;26.88;20.48;;;;;;;;;;5029838;28;20080;-65
2024/03/09 13:40:53;;;;;;;24.95;19.38;;;;;;;;;;5026906;28;20041;-65
2024/03/09 13:43:19;;;;;;;28.17;20.67;;;;;;;;;;5028365;28;20089;-65
2024/03/09 13:45:52;;;;;;;27.30;18.95;;;;;;;;;;5028575;28;20402;-65
2024/03/09 13:48:18;;;;;;;25.15;18.20;;;;;;;;;;5030736;28;20053;-65
2024/03/09 13:50:45;;;;;;;26.73;19.10;;;;;;;;;;5029305;28;20120;-65
2024/03/09 13:53:11;;;;;;;24.88;19.15;;;;;;;;;;5026556;28;20566;-65
2024/03/09 13:55:39;;;;;;;23.00;17.70;;;;;;;;;;5025614;28;20042;-65
2024/03/09 13:58:05;;;;;;;24.95;19.70;;;;;;;;;;5027422;28;20280;-65
2024/03/09 14:00:32;;;;;;;27.05;18.88;;;;;;;;;;5025885;28;20076;-65
2024/03/09 14:02:59;;;;;;;27.10;19.42;;;;;;;;;;5025752;28;20179;-65
2024/03/09 14:05:26;;;;;;;27.05;20.08;;;;;;;;;;5027232;28;20140;-65
2024/03/09 14:07:56;;;;;;;29.08;20.27;;;;;;;;;;5025966;28;20053;-65
2024/03/09 14:10:23;;;;;;;27.77;19.27;;;;;;;;;;5026365;28;20463;-65
2024/03/09 14:12:50;;;;;;;28.38;19.30;;;;;;;;;;5036191;28;20144;-65
2024/03/09 14:15:21;;;;;;;24.52;18.23;;;;;;;;;;5032939;28;20057;-65
2024/03/09 14:17:49;;;;;;;25.40;19.05;;;;;;;;;;5032799;28;20408;-65
2024/03/09 14:20:16;;;;;;;25.08;18.63;;;;;;;;;;5035251;28;20128;-65